createdAt,value
2022-07-25T00:01:54.473Z,1.80
2022-07-25T00:11:55.996Z,1.70
2022-07-25T00:21:58.628Z,1.95
2022-07-25T00:32:00.248Z,2.03
2022-07-25T00:42:01.798Z,1.90
2022-07-25T00:52:03.849Z,1.90
2022-07-25T01:02:05.495Z,2.10
2022-07-25T01:12:07.243Z,2.17
2022-07-25T01:22:13.306Z,2.40
2022-07-25T01:32:14.804Z,2.20
2022-07-25T01:42:16.330Z,2.47
2022-07-25T01:52:18.173Z,2.55
2022-07-25T02:02:19.731Z,2.88
2022-07-25T02:12:21.402Z,3.10
2022-07-25T02:22:22.955Z,3.45
2022-07-25T02:32:25.219Z,3.00
2022-07-25T02:42:26.778Z,2.97
2022-07-25T02:52:28.292Z,3.42
2022-07-25T03:02:29.817Z,3.15
2022-07-25T03:12:32.878Z,3.55
2022-07-25T03:22:35.109Z,3.30
2022-07-25T03:32:36.651Z,3.47
2022-07-25T03:42:38.208Z,4.55
2022-07-25T03:52:39.985Z,5.57
2022-07-25T04:02:41.675Z,7.32
2022-07-25T04:12:43.260Z,7.05
2022-07-25T04:22:46.961Z,7.22
2022-07-25T04:32:48.741Z,8.38
2022-07-25T04:42:50.244Z,9.32
2022-07-25T04:52:51.786Z,8.95
2022-07-25T05:02:53.487Z,9.20
2022-07-25T05:12:55.499Z,9.13
2022-07-25T05:22:57.105Z,6.72
2022-07-25T05:32:58.654Z,6.72
2022-07-25T05:43:03.224Z,5.75
2022-07-25T05:53:05.297Z,5.75
2022-07-25T06:03:06.874Z,5.45
2022-07-25T06:13:08.760Z,5.50
2022-07-25T06:23:11.918Z,5.95
2022-07-25T06:33:13.705Z,5.25
2022-07-25T06:43:15.264Z,5.70
2022-07-25T06:53:16.867Z,6.15
2022-07-25T07:03:18.416Z,6.00
2022-07-25T07:13:24.108Z,5.63
2022-07-25T07:23:26.184Z,5.72
2022-07-25T07:33:30.835Z,5.97
2022-07-25T07:43:32.404Z,5.30
2022-07-25T07:53:52.660Z,5.28
2022-07-25T08:03:54.209Z,5.60
2022-07-25T08:13:55.795Z,5.60
2022-07-25T08:23:57.328Z,5.60
2022-07-25T08:33:59.170Z,5.43
2022-07-25T08:44:02.875Z,5.15
2022-07-25T08:54:04.897Z,4.82
2022-07-25T09:04:10.141Z,5.03
2022-07-25T09:14:15.212Z,5.05
2022-07-25T09:24:18.765Z,4.80
2022-07-25T09:34:38.684Z,4.47
2022-07-25T09:44:40.220Z,4.70
2022-07-25T09:54:41.816Z,4.63
2022-07-25T10:04:51.908Z,4.40
2022-07-25T10:15:05.972Z,3.97
2022-07-25T10:25:11.343Z,3.90
2022-07-25T10:35:16.805Z,3.80
2022-07-25T10:45:18.493Z,3.65
2022-07-25T10:55:23.948Z,3.40
2022-07-25T11:05:25.564Z,3.03
2022-07-25T11:15:27.279Z,2.92
2022-07-25T11:25:28.829Z,2.55
2022-07-25T11:35:32.040Z,2.60
2022-07-25T11:45:34.269Z,3.08
2022-07-25T11:55:40.745Z,3.00
2022-07-25T12:05:42.815Z,2.72
2022-07-25T12:15:44.336Z,2.65
2022-07-25T12:25:46.901Z,3.20
2022-07-25T12:35:48.557Z,2.58
2022-07-25T12:45:50.175Z,2.42
2022-07-25T12:55:51.847Z,2.40
2022-07-25T13:05:54.257Z,2.40
2022-07-25T13:15:55.818Z,2.40
2022-07-25T13:25:57.514Z,2.20
2022-07-25T13:35:59.219Z,2.00
2022-07-25T13:46:01.267Z,1.95
2022-07-25T13:56:03.100Z,2.22
2022-07-25T14:06:05.275Z,2.10
2022-07-25T14:16:07.178Z,2.42
2022-07-25T14:26:08.726Z,2.60
2022-07-25T14:36:10.651Z,2.50
2022-07-25T14:46:12.193Z,2.47
2022-07-25T14:56:13.694Z,3.17
2022-07-25T15:06:17.277Z,3.03
2022-07-25T15:16:19.050Z,2.70
2022-07-25T15:26:20.690Z,2.47
2022-07-25T15:36:25.905Z,2.22
2022-07-25T15:46:30.916Z,2.63
2022-07-25T15:56:32.450Z,2.90
2022-07-25T16:06:34.297Z,2.53
2022-07-25T16:16:36.564Z,2.28
2022-07-25T16:26:38.540Z,2.70
2022-07-25T16:36:40.123Z,2.42
2022-07-25T16:46:42.079Z,2.00
2022-07-25T16:56:43.791Z,2.38
2022-07-25T17:06:45.369Z,2.10
2022-07-25T17:16:47.047Z,1.48
2022-07-25T17:26:48.679Z,1.50
2022-07-25T17:36:50.351Z,1.67
2022-07-25T17:46:55.391Z,1.45
2022-07-25T17:56:57.642Z,1.85
2022-07-25T18:06:59.195Z,1.48
2022-07-25T18:17:00.795Z,1.00
2022-07-25T18:27:02.410Z,1.42
2022-07-25T18:37:05.306Z,1.13
2022-07-25T18:47:07.212Z,1.60
2022-07-25T18:57:08.813Z,1.35
2022-07-25T19:07:10.463Z,1.38
2022-07-25T19:17:12.040Z,1.40
2022-07-25T19:27:13.697Z,0.90
2022-07-25T19:37:15.297Z,1.42
2022-07-25T19:47:16.868Z,1.30
2022-07-25T19:57:19.049Z,1.20
2022-07-25T20:07:21.125Z,1.17
2022-07-25T20:17:23.317Z,1.25
2022-07-25T20:27:24.803Z,1.10
2022-07-25T20:37:26.386Z,1.35
2022-07-25T20:47:27.983Z,1.23
2022-07-25T20:57:29.569Z,1.08
2022-07-25T21:07:31.065Z,1.30
2022-07-25T21:17:32.975Z,0.95
2022-07-25T21:27:35.103Z,1.30
2022-07-25T21:37:36.730Z,1.42
2022-07-25T21:47:38.337Z,1.17
2022-07-25T21:57:39.884Z,0.80
2022-07-25T22:07:41.972Z,1.08
2022-07-25T22:17:48.664Z,1.35
2022-07-25T22:27:51.310Z,1.10
2022-07-25T22:37:52.819Z,1.40
2022-07-25T22:47:54.454Z,1.10
2022-07-25T22:57:56.097Z,0.98
2022-07-25T23:07:57.631Z,1.15
2022-07-25T23:17:59.183Z,1.17
2022-07-25T23:28:00.742Z,0.90
2022-07-25T23:38:02.525Z,1.40
2022-07-25T23:48:05.248Z,1.00
2022-07-25T23:58:06.800Z,1.08
